sensor_id;sensor_type;location;lat;lon;timestamp;pressure;altitude;pressure_sealevel;temperature;humidity
77823;BME280;67013;49.730;17.292;2023-03-17T00:00:46;98993.84;;;1.02;58.10
77823;BME280;67013;49.730;17.292;2023-03-17T00:03:20;98988.97;;;0.98;58.33
77823;BME280;67013;49.730;17.292;2023-03-17T00:05:51;98987.66;;;0.96;58.36
77823;BME280;67013;49.730;17.292;2023-03-17T00:08:24;98989.91;;;0.94;58.14
77823;BME280;67013;49.730;17.292;2023-03-17T00:10:54;98997.46;;;0.94;58.32
77823;BME280;67013;49.730;17.292;2023-03-17T00:13:24;99000.89;;;0.94;58.29
77823;BME280;67013;49.730;17.292;2023-03-17T00:15:57;99001.06;;;0.94;58.39
77823;BME280;67013;49.730;17.292;2023-03-17T00:18:28;99005.33;;;0.94;58.35
77823;BME280;67013;49.730;17.292;2023-03-17T00:20:58;98999.33;;;0.95;58.25
77823;BME280;67013;49.730;17.292;2023-03-17T00:23:28;98998.81;;;0.95;57.93
77823;BME280;67013;49.730;17.292;2023-03-17T00:25:58;99001.04;;;0.95;58.16
77823;BME280;67013;49.730;17.292;2023-03-17T00:28:28;98999.99;;;0.96;58.09
77823;BME280;67013;49.730;17.292;2023-03-17T00:30:59;99001.89;;;0.95;57.97
77823;BME280;67013;49.730;17.292;2023-03-17T00:33:31;99000.36;;;0.95;57.93
77823;BME280;67013;49.730;17.292;2023-03-17T00:36:04;99002.79;;;0.93;58.06
77823;BME280;67013;49.730;17.292;2023-03-17T00:38:34;99003.33;;;0.92;58.06
77823;BME280;67013;49.730;17.292;2023-03-17T00:41:04;99008.49;;;0.91;57.94
77823;BME280;67013;49.730;17.292;2023-03-17T00:43:34;99003.91;;;0.89;58.25
77823;BME280;67013;49.730;17.292;2023-03-17T00:46:10;99003.48;;;0.86;58.29
77823;BME280;67013;49.730;17.292;2023-03-17T00:48:42;99008.84;;;0.84;58.36
77823;BME280;67013;49.730;17.292;2023-03-17T00:51:12;99011.98;;;0.81;58.19
77823;BME280;67013;49.730;17.292;2023-03-17T00:53:42;99014.09;;;0.79;58.47
77823;BME280;67013;49.730;17.292;2023-03-17T00:56:15;99016.04;;;0.76;58.56
77823;BME280;67013;49.730;17.292;2023-03-17T00:58:45;99015.45;;;0.73;58.62
77823;BME280;67013;49.730;17.292;2023-03-17T01:01:15;99021.00;;;0.69;58.94
77823;BME280;67013;49.730;17.292;2023-03-17T01:03:45;99020.38;;;0.66;59.04
77823;BME280;67013;49.730;17.292;2023-03-17T01:06:15;99021.13;;;0.63;59.14
77823;BME280;67013;49.730;17.292;2023-03-17T01:08:45;99027.20;;;0.60;59.30
77823;BME280;67013;49.730;17.292;2023-03-17T01:11:20;99032.25;;;0.56;59.19
77823;BME280;67013;49.730;17.292;2023-03-17T01:13:49;99027.73;;;0.51;59.51
77823;BME280;67013;49.730;17.292;2023-03-17T01:16:19;99020.80;;;0.47;59.50
77823;BME280;67013;49.730;17.292;2023-03-17T01:18:49;99016.83;;;0.42;60.01
77823;BME280;67013;49.730;17.292;2023-03-17T01:21:19;99003.59;;;0.37;59.93
77823;BME280;67013;49.730;17.292;2023-03-17T01:23:49;98991.85;;;0.33;59.87
77823;BME280;67013;49.730;17.292;2023-03-17T01:26:18;98978.61;;;0.29;59.77
77823;BME280;67013;49.730;17.292;2023-03-17T01:28:48;98965.67;;;0.26;59.74
77823;BME280;67013;49.730;17.292;2023-03-17T01:31:18;98967.42;;;0.24;60.01
77823;BME280;67013;49.730;17.292;2023-03-17T01:33:47;98962.17;;;0.22;59.89
77823;BME280;67013;49.730;17.292;2023-03-17T01:36:17;98949.36;;;0.21;60.26
77823;BME280;67013;49.730;17.292;2023-03-17T01:38:47;98948.23;;;0.19;60.09
77823;BME280;67013;49.730;17.292;2023-03-17T01:41:18;98945.70;;;0.17;60.21
77823;BME280;67013;49.730;17.292;2023-03-17T01:43:48;98933.98;;;0.13;60.78
77823;BME280;67013;49.730;17.292;2023-03-17T01:46:24;98925.16;;;0.10;60.49
77823;BME280;67013;49.730;17.292;2023-03-17T01:49:15;98923.18;;;0.07;60.51
77823;BME280;67013;49.730;17.292;2023-03-17T01:51:52;98925.30;;;0.03;60.38
77823;BME280;67013;49.730;17.292;2023-03-17T01:54:27;98917.46;;;0.02;60.46
77823;BME280;67013;49.730;17.292;2023-03-17T01:57:01;98914.27;;;-0.00;60.39
77823;BME280;67013;49.730;17.292;2023-03-17T01:59:35;98915.61;;;0.00;60.19
77823;BME280;67013;49.730;17.292;2023-03-17T02:02:10;98914.56;;;0.02;59.98
77823;BME280;67013;49.730;17.292;2023-03-17T02:04:43;98919.14;;;0.04;59.94
77823;BME280;67013;49.730;17.292;2023-03-17T02:07:12;98920.32;;;0.05;60.06
77823;BME280;67013;49.730;17.292;2023-03-17T02:09:42;98913.08;;;0.08;60.20
77823;BME280;67013;49.730;17.292;2023-03-17T02:12:14;98911.48;;;0.10;60.04
77823;BME280;67013;49.730;17.292;2023-03-17T02:14:43;98910.77;;;0.12;59.75
77823;BME280;67013;49.730;17.292;2023-03-17T02:17:13;98913.65;;;0.13;59.84
77823;BME280;67013;49.730;17.292;2023-03-17T02:19:43;98907.45;;;0.15;59.69
77823;BME280;67013;49.730;17.292;2023-03-17T02:22:12;98902.67;;;0.15;59.97
77823;BME280;67013;49.730;17.292;2023-03-17T02:24:44;98894.08;;;0.16;59.58
77823;BME280;67013;49.730;17.292;2023-03-17T02:27:17;98890.80;;;0.16;59.55
77823;BME280;67013;49.730;17.292;2023-03-17T02:29:48;98889.98;;;0.16;59.79
77823;BME280;67013;49.730;17.292;2023-03-17T02:32:18;98894.83;;;0.14;59.55
77823;BME280;67013;49.730;17.292;2023-03-17T02:34:49;98902.41;;;0.11;59.90
77823;BME280;67013;49.730;17.292;2023-03-17T02:37:19;98901.05;;;0.10;59.55
77823;BME280;67013;49.730;17.292;2023-03-17T02:39:48;98896.48;;;0.08;59.76
77823;BME280;67013;49.730;17.292;2023-03-17T02:42:18;98900.81;;;0.06;59.63
77823;BME280;67013;49.730;17.292;2023-03-17T02:44:48;98903.94;;;0.03;59.73
77823;BME280;67013;49.730;17.292;2023-03-17T02:47:17;98898.17;;;0.01;59.63
77823;BME280;67013;49.730;17.292;2023-03-17T02:49:47;98898.74;;;-0.02;59.80
77823;BME280;67013;49.730;17.292;2023-03-17T02:52:17;98895.35;;;-0.03;59.79
77823;BME280;67013;49.730;17.292;2023-03-17T02:54:46;98896.56;;;-0.03;59.80
77823;BME280;67013;49.730;17.292;2023-03-17T02:57:16;98900.67;;;-0.04;59.68
77823;BME280;67013;49.730;17.292;2023-03-17T02:59:45;98902.73;;;-0.04;59.93
77823;BME280;67013;49.730;17.292;2023-03-17T03:02:15;98901.02;;;-0.04;60.02
77823;BME280;67013;49.730;17.292;2023-03-17T03:04:45;98904.27;;;-0.05;59.80
77823;BME280;67013;49.730;17.292;2023-03-17T03:07:14;98907.00;;;-0.04;59.89
77823;BME280;67013;49.730;17.292;2023-03-17T03:09:44;98908.02;;;-0.03;59.80
77823;BME280;67013;49.730;17.292;2023-03-17T03:12:14;98902.73;;;-0.04;59.98
77823;BME280;67013;49.730;17.292;2023-03-17T03:14:43;98902.72;;;-0.03;59.79
77823;BME280;67013;49.730;17.292;2023-03-17T03:17:13;98901.52;;;-0.03;59.54
77823;BME280;67013;49.730;17.292;2023-03-17T03:19:43;98906.30;;;-0.03;59.83
77823;BME280;67013;49.730;17.292;2023-03-17T03:22:12;98908.33;;;-0.02;59.58
77823;BME280;67013;49.730;17.292;2023-03-17T03:24:42;98913.11;;;-0.02;59.33
77823;BME280;67013;49.730;17.292;2023-03-17T03:27:11;98912.42;;;-0.01;59.31
77823;BME280;67013;49.730;17.292;2023-03-17T03:29:41;98908.65;;;-0.01;59.28
77823;BME280;67013;49.730;17.292;2023-03-17T03:32:11;98912.07;;;-0.01;59.37
77823;BME280;67013;49.730;17.292;2023-03-17T03:34:40;98918.02;;;-0.00;59.49
77823;BME280;67013;49.730;17.292;2023-03-17T03:37:10;98909.98;;;-0.00;59.54
77823;BME280;67013;49.730;17.292;2023-03-17T03:39:39;98911.04;;;-0.01;59.43
77823;BME280;67013;49.730;17.292;2023-03-17T03:42:09;98912.94;;;-0.01;59.35
77823;BME280;67013;49.730;17.292;2023-03-17T03:44:39;98905.77;;;-0.02;59.30
77823;BME280;67013;49.730;17.292;2023-03-17T03:47:09;98907.66;;;-0.03;59.59
77823;BME280;67013;49.730;17.292;2023-03-17T03:49:39;98903.06;;;-0.03;59.28
77823;BME280;67013;49.730;17.292;2023-03-17T03:52:09;98895.23;;;-0.05;59.32
77823;BME280;67013;49.730;17.292;2023-03-17T03:54:38;98896.26;;;-0.05;59.53
77823;BME280;67013;49.730;17.292;2023-03-17T03:57:08;98894.05;;;-0.06;59.59
77823;BME280;67013;49.730;17.292;2023-03-17T03:59:37;98888.95;;;-0.07;59.57
77823;BME280;67013;49.730;17.292;2023-03-17T04:02:07;98882.61;;;-0.07;59.27
77823;BME280;67013;49.730;17.292;2023-03-17T04:04:37;98879.02;;;-0.07;59.67
77823;BME280;67013;49.730;17.292;2023-03-17T04:07:07;98884.67;;;-0.07;59.61
77823;BME280;67013;49.730;17.292;2023-03-17T04:09:36;98891.17;;;-0.07;59.42
77823;BME280;67013;49.730;17.292;2023-03-17T04:12:08;98887.24;;;-0.07;59.27
77823;BME280;67013;49.730;17.292;2023-03-17T04:14:38;98891.84;;;-0.07;58.86
77823;BME280;67013;49.730;17.292;2023-03-17T04:17:07;98888.58;;;-0.05;58.55
77823;BME280;67013;49.730;17.292;2023-03-17T04:19:37;98885.83;;;-0.05;58.64
77823;BME280;67013;49.730;17.292;2023-03-17T04:22:08;98891.27;;;-0.04;59.33
77823;BME280;67013;49.730;17.292;2023-03-17T04:24:39;98892.30;;;-0.04;59.19
77823;BME280;67013;49.730;17.292;2023-03-17T04:27:09;98895.89;;;-0.04;58.95
77823;BME280;67013;49.730;17.292;2023-03-17T04:29:39;98897.96;;;-0.05;59.48
77823;BME280;67013;49.730;17.292;2023-03-17T04:32:09;98900.38;;;-0.06;59.18
77823;BME280;67013;49.730;17.292;2023-03-17T04:34:41;98893.57;;;-0.07;59.07
77823;BME280;67013;49.730;17.292;2023-03-17T04:37:11;98893.78;;;-0.09;59.05
77823;BME280;67013;49.730;17.292;2023-03-17T04:39:40;98890.55;;;-0.10;59.41
77823;BME280;67013;49.730;17.292;2023-03-17T04:42:10;98886.66;;;-0.13;59.74
77823;BME280;67013;49.730;17.292;2023-03-17T04:44:40;98878.98;;;-0.13;60.04
77823;BME280;67013;49.730;17.292;2023-03-17T04:47:10;98883.06;;;-0.12;60.21
77823;BME280;67013;49.730;17.292;2023-03-17T04:49:40;98887.44;;;-0.08;60.14
77823;BME280;67013;49.730;17.292;2023-03-17T04:52:09;98894.33;;;-0.03;60.00
77823;BME280;67013;49.730;17.292;2023-03-17T04:54:39;98909.25;;;0.03;60.17
77823;BME280;67013;49.730;17.292;2023-03-17T04:57:09;98913.23;;;0.08;59.64
77823;BME280;67013;49.730;17.292;2023-03-17T04:59:39;98916.68;;;0.15;59.60
77823;BME280;67013;49.730;17.292;2023-03-17T05:02:08;98923.70;;;0.21;59.18
77823;BME280;67013;49.730;17.292;2023-03-17T05:04:38;98916.08;;;0.26;58.90
77823;BME280;67013;49.730;17.292;2023-03-17T05:07:08;98910.84;;;0.30;59.36
77823;BME280;67013;49.730;17.292;2023-03-17T05:09:37;98920.37;;;0.32;58.89
77823;BME280;67013;49.730;17.292;2023-03-17T05:12:09;98917.73;;;0.35;58.26
77823;BME280;67013;49.730;17.292;2023-03-17T05:14:39;98921.90;;;0.41;58.17
77823;BME280;67013;49.730;17.292;2023-03-17T05:17:09;98912.60;;;0.50;57.36
77823;BME280;67013;49.730;17.292;2023-03-17T05:19:38;98905.35;;;0.60;56.78
77823;BME280;67013;49.730;17.292;2023-03-17T05:22:09;98907.42;;;0.72;56.13
77823;BME280;67013;49.730;17.292;2023-03-17T05:24:39;98913.45;;;0.85;55.48
77823;BME280;67013;49.730;17.292;2023-03-17T05:27:09;98919.29;;;0.98;55.36
77823;BME280;67013;49.730;17.292;2023-03-17T05:29:39;98918.58;;;1.12;54.59
77823;BME280;67013;49.730;17.292;2023-03-17T05:32:09;98918.01;;;1.27;54.62
77823;BME280;67013;49.730;17.292;2023-03-17T05:34:39;98926.28;;;1.44;53.73
77823;BME280;67013;49.730;17.292;2023-03-17T05:37:08;98932.20;;;1.65;53.45
77823;BME280;67013;49.730;17.292;2023-03-17T05:39:38;98928.66;;;2.26;52.38
77823;BME280;67013;49.730;17.292;2023-03-17T05:42:09;98927.96;;;3.46;50.27
77823;BME280;67013;49.730;17.292;2023-03-17T05:44:38;98924.25;;;4.36;48.91
77823;BME280;67013;49.730;17.292;2023-03-17T05:47:08;98926.27;;;5.01;47.73
77823;BME280;67013;49.730;17.292;2023-03-17T05:49:38;98923.73;;;5.48;45.69
77823;BME280;67013;49.730;17.292;2023-03-17T05:52:07;98926.25;;;6.34;44.20
77823;BME280;67013;49.730;17.292;2023-03-17T05:54:37;98924.33;;;7.56;42.63
77823;BME280;67013;49.730;17.292;2023-03-17T05:57:07;98925.30;;;8.84;40.44
77823;BME280;67013;49.730;17.292;2023-03-17T05:59:37;98921.48;;;9.52;39.26
77823;BME280;67013;49.730;17.292;2023-03-17T06:02:07;98916.66;;;10.08;38.06
77823;BME280;67013;49.730;17.292;2023-03-17T06:04:38;98916.52;;;10.71;36.93
77823;BME280;67013;49.730;17.292;2023-03-17T06:07:08;98919.70;;;11.35;35.17
77823;BME280;67013;49.730;17.292;2023-03-17T06:09:39;98912.20;;;12.23;33.79
77823;BME280;67013;49.730;17.292;2023-03-17T06:12:09;98917.26;;;13.23;32.52
77823;BME280;67013;49.730;17.292;2023-03-17T06:14:39;98921.14;;;14.00;28.39
77823;BME280;67013;49.730;17.292;2023-03-17T06:17:08;98919.14;;;14.71;28.29
77823;BME280;67013;49.730;17.292;2023-03-17T06:19:39;98919.15;;;15.65;26.85
77823;BME280;67013;49.730;17.292;2023-03-17T06:22:09;98921.86;;;16.43;25.68
77823;BME280;67013;49.730;17.292;2023-03-17T06:24:39;98929.50;;;17.14;24.14
77823;BME280;67013;49.730;17.292;2023-03-17T06:27:08;98927.08;;;17.69;24.09
77823;BME280;67013;49.730;17.292;2023-03-17T06:29:40;98921.58;;;18.21;21.73
77823;BME280;67013;49.730;17.292;2023-03-17T06:32:10;98916.55;;;18.30;21.51
77823;BME280;67013;49.730;17.292;2023-03-17T06:34:39;98920.48;;;18.57;21.32
77823;BME280;67013;49.730;17.292;2023-03-17T06:37:09;98928.16;;;18.88;20.87
77823;BME280;67013;49.730;17.292;2023-03-17T06:39:39;98931.79;;;19.19;20.30
77823;BME280;67013;49.730;17.292;2023-03-17T06:42:10;98926.48;;;19.28;20.01
77823;BME280;67013;49.730;17.292;2023-03-17T06:44:39;98924.93;;;19.22;19.77
77823;BME280;67013;49.730;17.292;2023-03-17T06:47:09;98930.88;;;19.56;19.84
77823;BME280;67013;49.730;17.292;2023-03-17T06:49:39;98925.80;;;19.64;18.81
77823;BME280;67013;49.730;17.292;2023-03-17T06:52:08;98922.59;;;19.59;18.93
77823;BME280;67013;49.730;17.292;2023-03-17T06:54:38;98921.23;;;19.50;18.85
77823;BME280;67013;49.730;17.292;2023-03-17T06:57:08;98920.20;;;19.48;18.61
77823;BME280;67013;49.730;17.292;2023-03-17T06:59:38;98923.29;;;19.35;18.50
77823;BME280;67013;49.730;17.292;2023-03-17T07:02:08;98919.90;;;19.44;18.38
77823;BME280;67013;49.730;17.292;2023-03-17T07:04:38;98914.31;;;19.38;18.31
77823;BME280;67013;49.730;17.292;2023-03-17T07:07:08;98918.29;;;19.18;18.56
77823;BME280;67013;49.730;17.292;2023-03-17T07:09:38;98919.95;;;19.42;18.78
77823;BME280;67013;49.730;17.292;2023-03-17T07:12:09;98920.10;;;20.34;18.82
77823;BME280;67013;49.730;17.292;2023-03-17T07:14:38;98919.65;;;20.63;17.38
77823;BME280;67013;49.730;17.292;2023-03-17T07:17:12;98918.51;;;20.70;17.32
77823;BME280;67013;49.730;17.292;2023-03-17T07:19:42;98920.65;;;20.91;17.86
77823;BME280;67013;49.730;17.292;2023-03-17T07:22:12;98929.10;;;21.47;17.06
77823;BME280;67013;49.730;17.292;2023-03-17T07:24:42;98927.67;;;21.68;16.95
77823;BME280;67013;49.730;17.292;2023-03-17T07:27:13;98928.69;;;21.46;16.46
77823;BME280;67013;49.730;17.292;2023-03-17T07:29:43;98928.11;;;21.09;17.37
77823;BME280;67013;49.730;17.292;2023-03-17T07:32:13;98924.67;;;21.55;17.00
77823;BME280;67013;49.730;17.292;2023-03-17T07:34:42;98924.11;;;21.57;16.71
77823;BME280;67013;49.730;17.292;2023-03-17T07:37:12;98928.63;;;21.30;16.75
77823;BME280;67013;49.730;17.292;2023-03-17T07:39:41;98932.67;;;21.14;16.84
77823;BME280;67013;49.730;17.292;2023-03-17T07:42:12;98926.90;;;20.76;17.15
77823;BME280;67013;49.730;17.292;2023-03-17T07:44:42;98929.98;;;21.11;17.18
77823;BME280;67013;49.730;17.292;2023-03-17T07:47:12;98928.33;;;21.49;16.86
77823;BME280;67013;49.730;17.292;2023-03-17T07:49:42;98924.62;;;21.38;16.77
77823;BME280;67013;49.730;17.292;2023-03-17T07:52:12;98922.05;;;21.16;17.03
77823;BME280;67013;49.730;17.292;2023-03-17T07:54:41;98926.61;;;21.39;16.92
77823;BME280;67013;49.730;17.292;2023-03-17T07:57:12;98925.45;;;21.50;17.04
77823;BME280;67013;49.730;17.292;2023-03-17T07:59:43;98932.64;;;21.52;16.93
77823;BME280;67013;49.730;17.292;2023-03-17T08:02:15;98931.15;;;21.35;16.92
77823;BME280;67013;49.730;17.292;2023-03-17T08:04:46;98929.80;;;21.11;17.30
77823;BME280;67013;49.730;17.292;2023-03-17T08:07:15;98931.10;;;20.61;17.54
77823;BME280;67013;49.730;17.292;2023-03-17T08:09:45;98926.41;;;20.03;18.33
77823;BME280;67013;49.730;17.292;2023-03-17T08:12:15;98929.55;;;19.65;18.47
77823;BME280;67013;49.730;17.292;2023-03-17T08:14:44;98915.10;;;19.11;18.74
77823;BME280;67013;49.730;17.292;2023-03-17T08:17:14;98918.48;;;17.90;19.68
77823;BME280;67013;49.730;17.292;2023-03-17T08:19:43;98916.55;;;17.46;20.59
77823;BME280;67013;49.730;17.292;2023-03-17T08:22:13;98916.10;;;16.88;20.88
77823;BME280;67013;49.730;17.292;2023-03-17T08:24:42;98921.23;;;16.68;21.28
77823;BME280;67013;49.730;17.292;2023-03-17T08:27:12;98917.44;;;16.36;21.59
77823;BME280;67013;49.730;17.292;2023-03-17T08:29:42;98918.77;;;16.16;22.13
77823;BME280;67013;49.730;17.292;2023-03-17T08:32:12;98919.23;;;16.25;22.25
77823;BME280;67013;49.730;17.292;2023-03-17T08:34:42;98926.36;;;15.96;22.28
77823;BME280;67013;49.730;17.292;2023-03-17T08:37:13;98929.38;;;15.40;22.91
77823;BME280;67013;49.730;17.292;2023-03-17T08:39:42;98934.00;;;15.03;23.78
77823;BME280;67013;49.730;17.292;2023-03-17T08:42:12;98936.10;;;14.95;23.80
77823;BME280;67013;49.730;17.292;2023-03-17T08:44:42;98939.84;;;14.99;24.13
77823;BME280;67013;49.730;17.292;2023-03-17T08:47:11;98936.73;;;15.36;24.13
77823;BME280;67013;49.730;17.292;2023-03-17T08:49:41;98933.94;;;15.87;23.86
77823;BME280;67013;49.730;17.292;2023-03-17T08:52:10;98927.01;;;16.29;23.31
77823;BME280;67013;49.730;17.292;2023-03-17T08:54:40;98918.86;;;16.15;23.18
77823;BME280;67013;49.730;17.292;2023-03-17T08:57:10;98919.99;;;15.90;23.43
77823;BME280;67013;49.730;17.292;2023-03-17T08:59:40;98910.18;;;15.82;23.30
77823;BME280;67013;49.730;17.292;2023-03-17T09:02:11;98910.16;;;15.54;23.71
77823;BME280;67013;49.730;17.292;2023-03-17T09:04:41;98906.27;;;14.91;23.76
77823;BME280;67013;49.730;17.292;2023-03-17T09:07:11;98903.87;;;14.71;24.13
77823;BME280;67013;49.730;17.292;2023-03-17T09:09:40;98906.46;;;14.76;24.45
77823;BME280;67013;49.730;17.292;2023-03-17T09:12:10;98910.95;;;14.70;24.03
77823;BME280;67013;49.730;17.292;2023-03-17T09:14:40;98907.46;;;14.34;24.64
77823;BME280;67013;49.730;17.292;2023-03-17T09:17:09;98906.61;;;13.83;25.66
77823;BME280;67013;49.730;17.292;2023-03-17T09:19:39;98911.77;;;13.70;26.26
77823;BME280;67013;49.730;17.292;2023-03-17T09:22:13;98912.30;;;13.45;26.23
77823;BME280;67013;49.730;17.292;2023-03-17T09:24:43;98918.83;;;13.19;26.16
77823;BME280;67013;49.730;17.292;2023-03-17T09:27:13;98913.89;;;12.84;26.77
77823;BME280;67013;49.730;17.292;2023-03-17T09:29:43;98903.69;;;12.52;27.32
77823;BME280;67013;49.730;17.292;2023-03-17T09:32:12;98905.41;;;12.45;27.58
77823;BME280;67013;49.730;17.292;2023-03-17T09:34:42;98907.30;;;12.24;27.81
77823;BME280;67013;49.730;17.292;2023-03-17T09:37:12;98903.60;;;12.29;27.62
77823;BME280;67013;49.730;17.292;2023-03-17T09:39:41;98897.30;;;12.10;27.45
77823;BME280;67013;49.730;17.292;2023-03-17T09:42:21;98891.65;;;12.01;27.53
77823;BME280;67013;49.730;17.292;2023-03-17T09:45:04;98875.64;;;11.60;28.23
77823;BME280;67013;49.730;17.292;2023-03-17T09:47:56;98872.33;;;11.02;28.96
77823;BME280;67013;49.730;17.292;2023-03-17T09:50:36;98878.92;;;10.71;29.60
77823;BME280;67013;49.730;17.292;2023-03-17T09:53:14;98887.60;;;10.64;30.51
77823;BME280;67013;49.730;17.292;2023-03-17T09:55:45;98885.85;;;10.50;30.28
77823;BME280;67013;49.730;17.292;2023-03-17T09:58:16;98883.20;;;10.61;29.86
77823;BME280;67013;49.730;17.292;2023-03-17T10:00:48;98870.59;;;10.65;30.06
77823;BME280;67013;49.730;17.292;2023-03-17T10:03:18;98869.02;;;10.63;29.85
77823;BME280;67013;49.730;17.292;2023-03-17T10:05:49;98872.42;;;10.69;29.93
77823;BME280;67013;49.730;17.292;2023-03-17T10:08:22;98878.62;;;10.68;29.78
77823;BME280;67013;49.730;17.292;2023-03-17T10:10:59;98874.55;;;10.71;29.92
77823;BME280;67013;49.730;17.292;2023-03-17T10:13:40;98872.64;;;10.71;30.11
77823;BME280;67013;49.730;17.292;2023-03-17T10:16:16;98862.40;;;10.71;30.31
77823;BME280;67013;49.730;17.292;2023-03-17T10:18:48;98857.86;;;10.63;30.67
77823;BME280;67013;49.730;17.292;2023-03-17T10:21:24;98845.83;;;10.40;30.60
77823;BME280;67013;49.730;17.292;2023-03-17T10:23:55;98838.14;;;10.21;30.95
77823;BME280;67013;49.730;17.292;2023-03-17T10:26:30;98834.33;;;10.16;31.43
77823;BME280;67013;49.730;17.292;2023-03-17T10:29:01;98828.44;;;9.99;31.33
77823;BME280;67013;49.730;17.292;2023-03-17T10:31:33;98836.88;;;9.89;31.77
77823;BME280;67013;49.730;17.292;2023-03-17T10:34:17;98844.09;;;9.90;31.35
77823;BME280;67013;49.730;17.292;2023-03-17T10:36:49;98850.62;;;9.89;31.52
77823;BME280;67013;49.730;17.292;2023-03-17T10:39:21;98853.95;;;9.94;31.21
77823;BME280;67013;49.730;17.292;2023-03-17T10:41:57;98850.85;;;10.05;31.53
77823;BME280;67013;49.730;17.292;2023-03-17T10:44:41;98844.63;;;10.15;31.62
77823;BME280;67013;49.730;17.292;2023-03-17T10:47:30;98843.80;;;10.23;31.76
77823;BME280;67013;49.730;17.292;2023-03-17T10:50:15;98842.35;;;10.18;31.31
77823;BME280;67013;49.730;17.292;2023-03-17T10:52:46;98843.42;;;10.31;31.21
77823;BME280;67013;49.730;17.292;2023-03-17T10:55:19;98842.73;;;10.47;31.22
77823;BME280;67013;49.730;17.292;2023-03-17T10:57:52;98846.92;;;10.57;31.17
77823;BME280;67013;49.730;17.292;2023-03-17T11:00:25;98850.89;;;10.64;30.79
77823;BME280;67013;49.730;17.292;2023-03-17T11:02:58;98850.09;;;10.60;30.62
77823;BME280;67013;49.730;17.292;2023-03-17T11:05:28;98846.89;;;10.47;30.49
77823;BME280;67013;49.730;17.292;2023-03-17T11:08:04;98843.74;;;10.50;30.97
77823;BME280;67013;49.730;17.292;2023-03-17T11:10:37;98835.02;;;10.56;31.89
77823;BME280;67013;49.730;17.292;2023-03-17T11:13:07;98838.20;;;10.66;31.30
77823;BME280;67013;49.730;17.292;2023-03-17T11:15:38;98837.33;;;10.64;30.82
77823;BME280;67013;49.730;17.292;2023-03-17T11:18:15;98839.39;;;10.64;31.37
77823;BME280;67013;49.730;17.292;2023-03-17T11:20:50;98847.35;;;10.67;31.71
77823;BME280;67013;49.730;17.292;2023-03-17T11:23:34;98845.40;;;10.75;30.81
77823;BME280;67013;49.730;17.292;2023-03-17T11:26:15;98835.27;;;10.84;31.06
77823;BME280;67013;49.730;17.292;2023-03-17T11:28:50;98829.11;;;10.95;31.63
77823;BME280;67013;49.730;17.292;2023-03-17T11:31:28;98832.75;;;11.13;30.82
77823;BME280;67013;49.730;17.292;2023-03-17T11:34:04;98828.81;;;11.22;30.17
77823;BME280;67013;49.730;17.292;2023-03-17T11:36:43;98819.02;;;11.26;30.13
77823;BME280;67013;49.730;17.292;2023-03-17T11:39:18;98814.31;;;11.11;29.98
77823;BME280;67013;49.730;17.292;2023-03-17T11:42:00;98813.42;;;11.08;30.38
77823;BME280;67013;49.730;17.292;2023-03-17T11:45:08;98805.63;;;11.05;30.19
77823;BME280;67013;49.730;17.292;2023-03-17T11:47:53;98794.05;;;10.94;30.50
77823;BME280;67013;49.730;17.292;2023-03-17T11:50:31;98787.18;;;10.90;31.16
77823;BME280;67013;49.730;17.292;2023-03-17T11:53:27;98781.27;;;10.80;31.09
77823;BME280;67013;49.730;17.292;2023-03-17T11:56:04;98785.94;;;10.80;30.91
77823;BME280;67013;49.730;17.292;2023-03-17T11:58:38;98773.30;;;10.71;30.80
77823;BME280;67013;49.730;17.292;2023-03-17T12:01:11;98767.16;;;10.72;31.16
77823;BME280;67013;49.730;17.292;2023-03-17T12:03:45;98758.98;;;10.75;30.52
77823;BME280;67013;49.730;17.292;2023-03-17T12:06:20;98761.37;;;10.60;30.49
77823;BME280;67013;49.730;17.292;2023-03-17T12:08:57;98768.48;;;10.50;30.96
77823;BME280;67013;49.730;17.292;2023-03-17T12:11:29;98765.95;;;10.46;30.84
77823;BME280;67013;49.730;17.292;2023-03-17T12:14:03;98759.99;;;10.41;30.71
77823;BME280;67013;49.730;17.292;2023-03-17T12:16:36;98754.99;;;10.41;30.73
77823;BME280;67013;49.730;17.292;2023-03-17T12:19:11;98756.06;;;10.43;30.91
77823;BME280;67013;49.730;17.292;2023-03-17T12:21:47;98749.16;;;10.45;30.89
77823;BME280;67013;49.730;17.292;2023-03-17T12:24:23;98747.00;;;10.49;31.40
77823;BME280;67013;49.730;17.292;2023-03-17T12:26:58;98747.00;;;10.54;30.98
77823;BME280;67013;49.730;17.292;2023-03-17T12:29:40;98741.83;;;10.56;31.46
77823;BME280;67013;49.730;17.292;2023-03-17T12:32:18;98736.91;;;10.59;31.13
77823;BME280;67013;49.730;17.292;2023-03-17T12:34:52;98726.95;;;10.54;30.86
77823;BME280;67013;49.730;17.292;2023-03-17T12:37:24;98724.23;;;10.56;31.63
77823;BME280;67013;49.730;17.292;2023-03-17T12:39:58;98722.36;;;10.61;31.21
77823;BME280;67013;49.730;17.292;2023-03-17T12:42:37;98721.35;;;10.63;31.05
77823;BME280;67013;49.730;17.292;2023-03-17T12:45:42;98712.04;;;10.56;30.28
77823;BME280;67013;49.730;17.292;2023-03-17T12:48:31;98708.05;;;10.54;30.15
77823;BME280;67013;49.730;17.292;2023-03-17T12:51:21;98706.20;;;10.50;30.19
77823;BME280;67013;49.730;17.292;2023-03-17T12:53:54;98699.67;;;10.54;30.83
77823;BME280;67013;49.730;17.292;2023-03-17T12:56:27;98694.89;;;10.55;30.37
77823;BME280;67013;49.730;17.292;2023-03-17T12:59:02;98692.95;;;10.61;30.48
77823;BME280;67013;49.730;17.292;2023-03-17T13:01:36;98697.19;;;10.66;30.18
77823;BME280;67013;49.730;17.292;2023-03-17T13:04:19;98688.02;;;10.68;30.51
77823;BME280;67013;49.730;17.292;2023-03-17T13:07:00;98687.40;;;10.71;30.36
77823;BME280;67013;49.730;17.292;2023-03-17T13:09:42;98672.67;;;10.70;30.36
77823;BME280;67013;49.730;17.292;2023-03-17T13:15:54;98670.27;;;10.72;30.35
77823;BME280;67013;49.730;17.292;2023-03-17T13:21:17;98669.16;;;10.76;30.72
77823;BME280;67013;49.730;17.292;2023-03-17T13:23:53;98667.35;;;10.74;30.64